CEI weather

Chiang Rai International Airport
Chiang Rai, Chiang Rai Province, Thailand

Public forecast

Using degrees Celsius for public forecast. Weather courtesy of forecast.io.

METAR (pilot weather report)

Retrieved 2019/05/22 04:00 UTC (6 minutes ago):

VTCT 220400Z 16005KT 9999 FEW021 SCT029 29/23 Q1011 NOSIG

TAF (pilot weather forecast)

Forecast is more than 12 hours old.

Retrieved 2019/05/21 00:00 UTC (1 day ago):

TAF VTCT 212300Z 2200/2306 24005KT 9999 SCT025 TEMPO 2208/2214 VRB15G35KT 5000 TSRA FEW018CB BKN020